sensor_id;sensor_type;location;lat;lon;timestamp;P1;durP1;ratioP1;P2;durP2;ratioP2
14118;SDS011;7138;49.246;9.100;2023-07-20T00:02:11;5.05;;;1.80;;
14118;SDS011;7138;49.246;9.100;2023-07-20T00:04:38;4.45;;;1.80;;
14118;SDS011;7138;49.246;9.100;2023-07-20T00:07:04;7.75;;;2.45;;
14118;SDS011;7138;49.246;9.100;2023-07-20T00:09:30;5.38;;;1.95;;
14118;SDS011;7138;49.246;9.100;2023-07-20T00:11:56;5.60;;;1.80;;
14118;SDS011;7138;49.246;9.100;2023-07-20T00:14:24;3.97;;;1.80;;
14118;SDS011;7138;49.246;9.100;2023-07-20T00:16:51;3.78;;;1.52;;
14118;SDS011;7138;49.246;9.100;2023-07-20T00:19:23;4.72;;;1.75;;
14118;SDS011;7138;49.246;9.100;2023-07-20T00:21:51;4.22;;;1.90;;
14118;SDS011;7138;49.246;9.100;2023-07-20T00:24:17;5.75;;;2.10;;
14118;SDS011;7138;49.246;9.100;2023-07-20T00:26:43;5.88;;;1.70;;
14118;SDS011;7138;49.246;9.100;2023-07-20T00:29:09;4.70;;;1.80;;
14118;SDS011;7138;49.246;9.100;2023-07-20T00:31:35;8.10;;;2.35;;
14118;SDS011;7138;49.246;9.100;2023-07-20T00:34:02;5.90;;;1.92;;
14118;SDS011;7138;49.246;9.100;2023-07-20T00:36:28;6.10;;;2.08;;
14118;SDS011;7138;49.246;9.100;2023-07-20T00:38:55;5.65;;;2.15;;
14118;SDS011;7138;49.246;9.100;2023-07-20T00:41:21;6.57;;;2.00;;
14118;SDS011;7138;49.246;9.100;2023-07-20T00:43:47;5.53;;;1.80;;
14118;SDS011;7138;49.246;9.100;2023-07-20T00:46:13;4.57;;;1.88;;
14118;SDS011;7138;49.246;9.100;2023-07-20T00:48:39;3.38;;;1.60;;
14118;SDS011;7138;49.246;9.100;2023-07-20T00:51:06;4.78;;;1.58;;
14118;SDS011;7138;49.246;9.100;2023-07-20T00:53:33;5.70;;;2.22;;
14118;SDS011;7138;49.246;9.100;2023-07-20T00:56:00;4.07;;;1.90;;
14118;SDS011;7138;49.246;9.100;2023-07-20T00:58:26;4.88;;;2.22;;
14118;SDS011;7138;49.246;9.100;2023-07-20T01:00:53;6.25;;;1.90;;
14118;SDS011;7138;49.246;9.100;2023-07-20T01:03:19;9.02;;;2.25;;
14118;SDS011;7138;49.246;9.100;2023-07-20T01:05:47;4.57;;;1.90;;
14118;SDS011;7138;49.246;9.100;2023-07-20T01:08:23;6.72;;;2.15;;
14118;SDS011;7138;49.246;9.100;2023-07-20T01:11:04;3.55;;;1.80;;
14118;SDS011;7138;49.246;9.100;2023-07-20T01:13:38;5.28;;;2.00;;
14118;SDS011;7138;49.246;9.100;2023-07-20T01:16:05;4.43;;;2.03;;
14118;SDS011;7138;49.246;9.100;2023-07-20T01:18:31;6.47;;;1.98;;
14118;SDS011;7138;49.246;9.100;2023-07-20T01:20:59;4.57;;;1.73;;
14118;SDS011;7138;49.246;9.100;2023-07-20T01:27:10;6.40;;;1.90;;
14118;SDS011;7138;49.246;9.100;2023-07-20T01:30:25;3.53;;;1.70;;
14118;SDS011;7138;49.246;9.100;2023-07-20T01:33:12;5.38;;;2.17;;
14118;SDS011;7138;49.246;9.100;2023-07-20T01:35:42;5.70;;;2.35;;
14118;SDS011;7138;49.246;9.100;2023-07-20T01:38:11;6.95;;;2.05;;
14118;SDS011;7138;49.246;9.100;2023-07-20T01:40:39;5.68;;;2.00;;
14118;SDS011;7138;49.246;9.100;2023-07-20T01:43:06;5.15;;;1.70;;
14118;SDS011;7138;49.246;9.100;2023-07-20T01:45:32;4.38;;;2.05;;
14118;SDS011;7138;49.246;9.100;2023-07-20T01:47:57;5.35;;;1.70;;
14118;SDS011;7138;49.246;9.100;2023-07-20T01:50:25;4.90;;;2.15;;
14118;SDS011;7138;49.246;9.100;2023-07-20T01:52:50;4.32;;;1.83;;
14118;SDS011;7138;49.246;9.100;2023-07-20T01:55:16;5.80;;;2.10;;
14118;SDS011;7138;49.246;9.100;2023-07-20T01:57:42;4.75;;;1.60;;
14118;SDS011;7138;49.246;9.100;2023-07-20T02:00:08;4.60;;;1.90;;
14118;SDS011;7138;49.246;9.100;2023-07-20T02:02:37;6.22;;;1.73;;
14118;SDS011;7138;49.246;9.100;2023-07-20T02:05:03;4.50;;;1.67;;
14118;SDS011;7138;49.246;9.100;2023-07-20T02:07:30;4.35;;;1.95;;
14118;SDS011;7138;49.246;9.100;2023-07-20T02:09:56;5.22;;;2.60;;
14118;SDS011;7138;49.246;9.100;2023-07-20T02:12:22;4.60;;;1.85;;
14118;SDS011;7138;49.246;9.100;2023-07-20T02:14:48;4.05;;;1.98;;
14118;SDS011;7138;49.246;9.100;2023-07-20T02:17:16;4.90;;;1.70;;
14118;SDS011;7138;49.246;9.100;2023-07-20T02:19:42;5.50;;;1.95;;
14118;SDS011;7138;49.246;9.100;2023-07-20T02:22:07;5.28;;;2.05;;
14118;SDS011;7138;49.246;9.100;2023-07-20T02:24:35;5.32;;;2.22;;
14118;SDS011;7138;49.246;9.100;2023-07-20T02:27:00;3.75;;;1.80;;
14118;SDS011;7138;49.246;9.100;2023-07-20T02:29:26;4.13;;;2.08;;
14118;SDS011;7138;49.246;9.100;2023-07-20T02:31:52;4.68;;;1.92;;
14118;SDS011;7138;49.246;9.100;2023-07-20T02:34:18;5.47;;;1.70;;
14118;SDS011;7138;49.246;9.100;2023-07-20T02:36:44;4.60;;;1.75;;
14118;SDS011;7138;49.246;9.100;2023-07-20T02:39:11;6.80;;;1.80;;
14118;SDS011;7138;49.246;9.100;2023-07-20T02:41:38;7.40;;;2.08;;
14118;SDS011;7138;49.246;9.100;2023-07-20T02:44:04;6.28;;;2.40;;
14118;SDS011;7138;49.246;9.100;2023-07-20T02:46:30;8.35;;;2.10;;
14118;SDS011;7138;49.246;9.100;2023-07-20T02:48:55;4.75;;;1.80;;
14118;SDS011;7138;49.246;9.100;2023-07-20T02:51:21;5.28;;;1.65;;
14118;SDS011;7138;49.246;9.100;2023-07-20T02:53:47;6.60;;;2.30;;
14118;SDS011;7138;49.246;9.100;2023-07-20T02:56:13;4.22;;;1.75;;
14118;SDS011;7138;49.246;9.100;2023-07-20T02:58:42;4.80;;;1.90;;
14118;SDS011;7138;49.246;9.100;2023-07-20T03:01:11;4.50;;;2.08;;
14118;SDS011;7138;49.246;9.100;2023-07-20T03:03:37;4.47;;;1.90;;
14118;SDS011;7138;49.246;9.100;2023-07-20T03:06:03;6.85;;;2.00;;
14118;SDS011;7138;49.246;9.100;2023-07-20T03:08:29;6.93;;;2.13;;
14118;SDS011;7138;49.246;9.100;2023-07-20T03:10:55;4.85;;;2.03;;
14118;SDS011;7138;49.246;9.100;2023-07-20T03:13:21;6.07;;;1.88;;
14118;SDS011;7138;49.246;9.100;2023-07-20T03:15:50;4.95;;;1.90;;
14118;SDS011;7138;49.246;9.100;2023-07-20T03:18:17;3.58;;;1.92;;
14118;SDS011;7138;49.246;9.100;2023-07-20T03:20:43;5.70;;;2.10;;
14118;SDS011;7138;49.246;9.100;2023-07-20T03:23:10;4.85;;;1.80;;
14118;SDS011;7138;49.246;9.100;2023-07-20T03:25:35;4.90;;;2.13;;
14118;SDS011;7138;49.246;9.100;2023-07-20T03:28:02;6.72;;;2.00;;
14118;SDS011;7138;49.246;9.100;2023-07-20T03:30:28;5.88;;;2.03;;
14118;SDS011;7138;49.246;9.100;2023-07-20T03:32:59;5.43;;;1.80;;
14118;SDS011;7138;49.246;9.100;2023-07-20T03:35:24;5.05;;;1.60;;
14118;SDS011;7138;49.246;9.100;2023-07-20T03:37:50;5.95;;;2.13;;
14118;SDS011;7138;49.246;9.100;2023-07-20T03:40:16;3.83;;;1.80;;
14118;SDS011;7138;49.246;9.100;2023-07-20T03:42:42;5.32;;;1.63;;
14118;SDS011;7138;49.246;9.100;2023-07-20T03:45:08;4.57;;;1.80;;
14118;SDS011;7138;49.246;9.100;2023-07-20T03:47:35;4.22;;;1.95;;
14118;SDS011;7138;49.246;9.100;2023-07-20T03:50:02;3.80;;;2.20;;
14118;SDS011;7138;49.246;9.100;2023-07-20T03:52:30;4.00;;;1.92;;
14118;SDS011;7138;49.246;9.100;2023-07-20T03:54:56;7.68;;;2.75;;
14118;SDS011;7138;49.246;9.100;2023-07-20T03:57:22;4.47;;;1.90;;
14118;SDS011;7138;49.246;9.100;2023-07-20T03:59:48;4.35;;;2.35;;
14118;SDS011;7138;49.246;9.100;2023-07-20T04:02:14;5.88;;;2.30;;
14118;SDS011;7138;49.246;9.100;2023-07-20T04:04:39;5.22;;;2.00;;
14118;SDS011;7138;49.246;9.100;2023-07-20T04:07:07;4.25;;;2.25;;
14118;SDS011;7138;49.246;9.100;2023-07-20T04:09:33;5.10;;;2.58;;
14118;SDS011;7138;49.246;9.100;2023-07-20T04:11:59;5.47;;;2.20;;
14118;SDS011;7138;49.246;9.100;2023-07-20T04:14:25;3.90;;;1.80;;
14118;SDS011;7138;49.246;9.100;2023-07-20T04:16:51;4.63;;;2.08;;
14118;SDS011;7138;49.246;9.100;2023-07-20T04:19:17;4.00;;;1.90;;
14118;SDS011;7138;49.246;9.100;2023-07-20T04:21:43;5.15;;;2.08;;
14118;SDS011;7138;49.246;9.100;2023-07-20T04:24:10;5.25;;;2.20;;
14118;SDS011;7138;49.246;9.100;2023-07-20T04:26:36;7.28;;;2.28;;
14118;SDS011;7138;49.246;9.100;2023-07-20T04:29:02;6.00;;;2.25;;
14118;SDS011;7138;49.246;9.100;2023-07-20T04:31:28;4.07;;;2.08;;
14118;SDS011;7138;49.246;9.100;2023-07-20T04:33:57;5.43;;;1.88;;
14118;SDS011;7138;49.246;9.100;2023-07-20T04:36:23;5.38;;;2.33;;
14118;SDS011;7138;49.246;9.100;2023-07-20T04:38:49;4.10;;;1.67;;
14118;SDS011;7138;49.246;9.100;2023-07-20T04:41:16;5.05;;;2.17;;
14118;SDS011;7138;49.246;9.100;2023-07-20T04:43:42;4.80;;;1.95;;
14118;SDS011;7138;49.246;9.100;2023-07-20T04:46:08;5.10;;;2.03;;
14118;SDS011;7138;49.246;9.100;2023-07-20T04:48:35;4.35;;;1.90;;
14118;SDS011;7138;49.246;9.100;2023-07-20T04:51:01;6.70;;;2.20;;
14118;SDS011;7138;49.246;9.100;2023-07-20T04:53:27;4.50;;;2.00;;
14118;SDS011;7138;49.246;9.100;2023-07-20T04:55:53;5.53;;;1.85;;
14118;SDS011;7138;49.246;9.100;2023-07-20T04:58:21;5.53;;;1.77;;
14118;SDS011;7138;49.246;9.100;2023-07-20T05:00:47;5.60;;;2.40;;
14118;SDS011;7138;49.246;9.100;2023-07-20T05:03:14;5.95;;;2.10;;
14118;SDS011;7138;49.246;9.100;2023-07-20T05:05:40;5.15;;;1.90;;
14118;SDS011;7138;49.246;9.100;2023-07-20T05:08:06;5.10;;;1.90;;
14118;SDS011;7138;49.246;9.100;2023-07-20T05:10:32;4.82;;;1.85;;
14118;SDS011;7138;49.246;9.100;2023-07-20T05:12:58;5.85;;;2.00;;
14118;SDS011;7138;49.246;9.100;2023-07-20T05:15:25;4.43;;;1.60;;
14118;SDS011;7138;49.246;9.100;2023-07-20T05:17:51;3.78;;;1.60;;
14118;SDS011;7138;49.246;9.100;2023-07-20T05:20:17;6.20;;;1.70;;
14118;SDS011;7138;49.246;9.100;2023-07-20T05:22:43;5.00;;;1.73;;
14118;SDS011;7138;49.246;9.100;2023-07-20T05:25:10;7.93;;;1.92;;
14118;SDS011;7138;49.246;9.100;2023-07-20T05:27:36;3.40;;;1.60;;
14118;SDS011;7138;49.246;9.100;2023-07-20T05:30:04;6.28;;;1.67;;
14118;SDS011;7138;49.246;9.100;2023-07-20T05:32:33;5.15;;;1.90;;
14118;SDS011;7138;49.246;9.100;2023-07-20T05:34:59;5.50;;;1.63;;
14118;SDS011;7138;49.246;9.100;2023-07-20T05:37:25;5.82;;;1.73;;
14118;SDS011;7138;49.246;9.100;2023-07-20T05:39:51;4.15;;;1.70;;
14118;SDS011;7138;49.246;9.100;2023-07-20T05:42:17;4.78;;;1.50;;
14118;SDS011;7138;49.246;9.100;2023-07-20T05:44:43;4.53;;;1.55;;
14118;SDS011;7138;49.246;9.100;2023-07-20T05:47:08;4.93;;;1.48;;
14118;SDS011;7138;49.246;9.100;2023-07-20T05:49:36;5.25;;;1.90;;
14118;SDS011;7138;49.246;9.100;2023-07-20T05:52:01;3.33;;;1.40;;
14118;SDS011;7138;49.246;9.100;2023-07-20T05:54:27;3.65;;;1.50;;
14118;SDS011;7138;49.246;9.100;2023-07-20T05:56:54;4.63;;;1.88;;
14118;SDS011;7138;49.246;9.100;2023-07-20T05:59:20;6.05;;;1.70;;
14118;SDS011;7138;49.246;9.100;2023-07-20T06:01:45;5.55;;;1.60;;
14118;SDS011;7138;49.246;9.100;2023-07-20T06:04:14;4.00;;;1.50;;
14118;SDS011;7138;49.246;9.100;2023-07-20T06:06:42;4.45;;;1.30;;
14118;SDS011;7138;49.246;9.100;2023-07-20T06:09:07;5.00;;;1.70;;
14118;SDS011;7138;49.246;9.100;2023-07-20T06:11:36;3.20;;;1.40;;
14118;SDS011;7138;49.246;9.100;2023-07-20T06:14:02;5.13;;;1.48;;
14118;SDS011;7138;49.246;9.100;2023-07-20T06:16:28;3.28;;;1.50;;
14118;SDS011;7138;49.246;9.100;2023-07-20T06:18:54;5.50;;;1.48;;
14118;SDS011;7138;49.246;9.100;2023-07-20T06:21:20;3.88;;;1.50;;
14118;SDS011;7138;49.246;9.100;2023-07-20T06:23:48;4.07;;;1.60;;
14118;SDS011;7138;49.246;9.100;2023-07-20T06:26:13;3.35;;;1.20;;
14118;SDS011;7138;49.246;9.100;2023-07-20T06:28:39;4.43;;;1.52;;
14118;SDS011;7138;49.246;9.100;2023-07-20T06:31:05;4.35;;;1.38;;
14118;SDS011;7138;49.246;9.100;2023-07-20T06:33:31;4.72;;;1.38;;
14118;SDS011;7138;49.246;9.100;2023-07-20T06:35:57;5.88;;;1.40;;
14118;SDS011;7138;49.246;9.100;2023-07-20T06:38:23;3.55;;;1.30;;
14118;SDS011;7138;49.246;9.100;2023-07-20T06:40:50;4.68;;;1.52;;
14118;SDS011;7138;49.246;9.100;2023-07-20T06:43:17;6.53;;;1.50;;
14118;SDS011;7138;49.246;9.100;2023-07-20T06:45:43;3.55;;;1.30;;
14118;SDS011;7138;49.246;9.100;2023-07-20T06:48:09;3.03;;;1.20;;
14118;SDS011;7138;49.246;9.100;2023-07-20T06:50:35;4.15;;;1.45;;
14118;SDS011;7138;49.246;9.100;2023-07-20T06:53:01;6.32;;;1.60;;
14118;SDS011;7138;49.246;9.100;2023-07-20T06:55:29;4.15;;;1.33;;
14118;SDS011;7138;49.246;9.100;2023-07-20T06:57:56;5.60;;;1.70;;
14118;SDS011;7138;49.246;9.100;2023-07-20T07:00:22;5.63;;;1.45;;
14118;SDS011;7138;49.246;9.100;2023-07-20T07:02:48;7.30;;;1.20;;
14118;SDS011;7138;49.246;9.100;2023-07-20T07:05:14;5.57;;;1.42;;
14118;SDS011;7138;49.246;9.100;2023-07-20T07:07:40;5.05;;;1.58;;
14118;SDS011;7138;49.246;9.100;2023-07-20T07:10:06;4.65;;;1.45;;
14118;SDS011;7138;49.246;9.100;2023-07-20T07:12:33;5.00;;;1.48;;
14118;SDS011;7138;49.246;9.100;2023-07-20T07:15:01;5.65;;;1.50;;
14118;SDS011;7138;49.246;9.100;2023-07-20T07:17:27;5.90;;;1.48;;
14118;SDS011;7138;49.246;9.100;2023-07-20T07:19:53;4.75;;;1.60;;
14118;SDS011;7138;49.246;9.100;2023-07-20T07:22:19;5.63;;;1.65;;
14118;SDS011;7138;49.246;9.100;2023-07-20T07:24:46;4.95;;;1.35;;
14118;SDS011;7138;49.246;9.100;2023-07-20T07:27:12;3.97;;;1.30;;
14118;SDS011;7138;49.246;9.100;2023-07-20T07:29:38;5.72;;;1.70;;
14118;SDS011;7138;49.246;9.100;2023-07-20T07:32:06;4.05;;;1.40;;
14118;SDS011;7138;49.246;9.100;2023-07-20T07:34:32;5.13;;;1.53;;
14118;SDS011;7138;49.246;9.100;2023-07-20T07:36:59;4.40;;;1.27;;
14118;SDS011;7138;49.246;9.100;2023-07-20T07:39:25;3.40;;;1.40;;
14118;SDS011;7138;49.246;9.100;2023-07-20T07:41:51;3.33;;;1.40;;
14118;SDS011;7138;49.246;9.100;2023-07-20T07:44:17;4.18;;;1.33;;
14118;SDS011;7138;49.246;9.100;2023-07-20T07:46:43;4.60;;;1.63;;
14118;SDS011;7138;49.246;9.100;2023-07-20T07:49:10;4.35;;;1.70;;
14118;SDS011;7138;49.246;9.100;2023-07-20T07:51:36;4.45;;;1.50;;
14118;SDS011;7138;49.246;9.100;2023-07-20T07:54:02;5.68;;;1.60;;
14118;SDS011;7138;49.246;9.100;2023-07-20T07:56:28;5.38;;;1.60;;
14118;SDS011;7138;49.246;9.100;2023-07-20T07:58:54;7.00;;;1.55;;
14118;SDS011;7138;49.246;9.100;2023-07-20T08:01:20;3.30;;;1.35;;
14118;SDS011;7138;49.246;9.100;2023-07-20T08:03:47;3.63;;;1.48;;
14118;SDS011;7138;49.246;9.100;2023-07-20T08:06:14;3.42;;;1.33;;
14118;SDS011;7138;49.246;9.100;2023-07-20T08:08:40;5.10;;;1.30;;
14118;SDS011;7138;49.246;9.100;2023-07-20T08:11:07;2.60;;;1.17;;
14118;SDS011;7138;49.246;9.100;2023-07-20T08:13:33;4.40;;;1.27;;
14118;SDS011;7138;49.246;9.100;2023-07-20T08:15:59;5.35;;;1.50;;
14118;SDS011;7138;49.246;9.100;2023-07-20T08:18:27;3.88;;;1.40;;
14118;SDS011;7138;49.246;9.100;2023-07-20T08:20:53;5.25;;;1.33;;
14118;SDS011;7138;49.246;9.100;2023-07-20T08:23:20;3.90;;;1.55;;
14118;SDS011;7138;49.246;9.100;2023-07-20T08:25:46;3.08;;;1.35;;
14118;SDS011;7138;49.246;9.100;2023-07-20T08:28:13;5.90;;;1.63;;
14118;SDS011;7138;49.246;9.100;2023-07-20T08:30:41;4.05;;;1.50;;
14118;SDS011;7138;49.246;9.100;2023-07-20T08:33:09;3.90;;;1.50;;
14118;SDS011;7138;49.246;9.100;2023-07-20T08:35:36;5.15;;;1.50;;
14118;SDS011;7138;49.246;9.100;2023-07-20T08:38:02;5.15;;;1.75;;
14118;SDS011;7138;49.246;9.100;2023-07-20T08:40:31;4.28;;;1.80;;
14118;SDS011;7138;49.246;9.100;2023-07-20T08:42:57;4.38;;;1.77;;
14118;SDS011;7138;49.246;9.100;2023-07-20T08:45:25;4.13;;;1.25;;
14118;SDS011;7138;49.246;9.100;2023-07-20T08:47:56;4.97;;;1.58;;
14118;SDS011;7138;49.246;9.100;2023-07-20T08:50:25;3.97;;;1.80;;
14118;SDS011;7138;49.246;9.100;2023-07-20T08:52:57;4.50;;;1.38;;
14118;SDS011;7138;49.246;9.100;2023-07-20T08:55:24;3.10;;;1.40;;
14118;SDS011;7138;49.246;9.100;2023-07-20T08:57:54;3.88;;;1.38;;
14118;SDS011;7138;49.246;9.100;2023-07-20T09:02:49;3.88;;;1.60;;
14118;SDS011;7138;49.246;9.100;2023-07-20T09:05:16;3.33;;;1.35;;
14118;SDS011;7138;49.246;9.100;2023-07-20T09:07:42;3.72;;;1.40;;
14118;SDS011;7138;49.246;9.100;2023-07-20T09:10:08;2.65;;;1.20;;
14118;SDS011;7138;49.246;9.100;2023-07-20T09:12:35;4.25;;;1.30;;
14118;SDS011;7138;49.246;9.100;2023-07-20T09:15:04;2.38;;;1.00;;
14118;SDS011;7138;49.246;9.100;2023-07-20T09:17:32;4.35;;;1.80;;
14118;SDS011;7138;49.246;9.100;2023-07-20T09:19:58;3.72;;;1.40;;
14118;SDS011;7138;49.246;9.100;2023-07-20T09:22:29;5.88;;;1.42;;
14118;SDS011;7138;49.246;9.100;2023-07-20T09:27:23;2.88;;;1.10;;
14118;SDS011;7138;49.246;9.100;2023-07-20T09:30:01;2.92;;;1.05;;
14118;SDS011;7138;49.246;9.100;2023-07-20T09:32:30;4.65;;;1.55;;
14118;SDS011;7138;49.246;9.100;2023-07-20T09:34:55;3.65;;;1.10;;
14118;SDS011;7138;49.246;9.100;2023-07-20T09:37:21;3.50;;;1.35;;
14118;SDS011;7138;49.246;9.100;2023-07-20T09:39:48;2.97;;;1.10;;
14118;SDS011;7138;49.246;9.100;2023-07-20T09:42:22;3.05;;;1.00;;
14118;SDS011;7138;49.246;9.100;2023-07-20T09:47:22;3.22;;;1.10;;
14118;SDS011;7138;49.246;9.100;2023-07-20T09:49:49;5.35;;;1.23;;
14118;SDS011;7138;49.246;9.100;2023-07-20T09:52:14;3.38;;;1.10;;
14118;SDS011;7138;49.246;9.100;2023-07-20T09:54:41;3.95;;;1.20;;
14118;SDS011;7138;49.246;9.100;2023-07-20T09:57:11;3.60;;;1.13;;
14118;SDS011;7138;49.246;9.100;2023-07-20T09:59:38;4.13;;;1.23;;
14118;SDS011;7138;49.246;9.100;2023-07-20T10:02:07;4.20;;;1.20;;
14118;SDS011;7138;49.246;9.100;2023-07-20T10:04:46;4.78;;;1.48;;
14118;SDS011;7138;49.246;9.100;2023-07-20T10:07:17;5.97;;;1.13;;
14118;SDS011;7138;49.246;9.100;2023-07-20T10:09:46;3.20;;;1.20;;
14118;SDS011;7138;49.246;9.100;2023-07-20T10:12:15;3.60;;;1.08;;
14118;SDS011;7138;49.246;9.100;2023-07-20T10:14:44;2.63;;;1.00;;
14118;SDS011;7138;49.246;9.100;2023-07-20T10:17:19;3.33;;;1.10;;
14118;SDS011;7138;49.246;9.100;2023-07-20T10:19:53;7.07;;;1.00;;
14118;SDS011;7138;49.246;9.100;2023-07-20T10:22:24;3.58;;;1.10;;
14118;SDS011;7138;49.246;9.100;2023-07-20T10:24:51;3.27;;;1.00;;
14118;SDS011;7138;49.246;9.100;2023-07-20T10:27:19;3.15;;;1.27;;
14118;SDS011;7138;49.246;9.100;2023-07-20T10:29:46;2.88;;;0.85;;
14118;SDS011;7138;49.246;9.100;2023-07-20T10:32:13;3.72;;;1.45;;
14118;SDS011;7138;49.246;9.100;2023-07-20T10:34:39;3.20;;;1.20;;
14118;SDS011;7138;49.246;9.100;2023-07-20T10:37:07;3.50;;;1.25;;
14118;SDS011;7138;49.246;9.100;2023-07-20T10:39:33;2.92;;;1.20;;
14118;SDS011;7138;49.246;9.100;2023-07-20T10:42:00;10.05;;;1.25;;
14118;SDS011;7138;49.246;9.100;2023-07-20T10:44:28;3.63;;;1.40;;
14118;SDS011;7138;49.246;9.100;2023-07-20T10:46:58;4.15;;;1.38;;
14118;SDS011;7138;49.246;9.100;2023-07-20T10:49:25;4.18;;;1.77;;
14118;SDS011;7138;49.246;9.100;2023-07-20T10:51:55;4.50;;;1.25;;
14118;SDS011;7138;49.246;9.100;2023-07-20T10:54:36;5.38;;;1.38;;
14118;SDS011;7138;49.246;9.100;2023-07-20T10:57:21;3.97;;;1.20;;
14118;SDS011;7138;49.246;9.100;2023-07-20T11:00:06;7.07;;;1.27;;
14118;SDS011;7138;49.246;9.100;2023-07-20T11:02:42;4.95;;;1.27;;
14118;SDS011;7138;49.246;9.100;2023-07-20T11:08:06;3.60;;;1.25;;
14118;SDS011;7138;49.246;9.100;2023-07-20T11:10:37;2.50;;;1.05;;
14118;SDS011;7138;49.246;9.100;2023-07-20T11:13:21;4.25;;;1.00;;
14118;SDS011;7138;49.246;9.100;2023-07-20T11:16:01;6.07;;;1.73;;
14118;SDS011;7138;49.246;9.100;2023-07-20T11:18:29;3.63;;;1.20;;
14118;SDS011;7138;49.246;9.100;2023-07-20T11:20:57;3.83;;;1.05;;
14118;SDS011;7138;49.246;9.100;2023-07-20T11:23:23;3.63;;;1.27;;
14118;SDS011;7138;49.246;9.100;2023-07-20T11:25:51;3.38;;;1.10;;
14118;SDS011;7138;49.246;9.100;2023-07-20T11:28:16;3.83;;;1.33;;
14118;SDS011;7138;49.246;9.100;2023-07-20T11:30:42;3.47;;;1.20;;
14118;SDS011;7138;49.246;9.100;2023-07-20T11:33:08;2.88;;;1.38;;
14118;SDS011;7138;49.246;9.100;2023-07-20T11:35:35;4.78;;;1.30;;
14118;SDS011;7138;49.246;9.100;2023-07-20T11:38:06;4.30;;;1.10;;
14118;SDS011;7138;49.246;9.100;2023-07-20T11:40:32;2.80;;;1.10;;
14118;SDS011;7138;49.246;9.100;2023-07-20T11:43:00;3.42;;;1.33;;
14118;SDS011;7138;49.246;9.100;2023-07-20T11:45:27;4.88;;;1.35;;
14118;SDS011;7138;49.246;9.100;2023-07-20T11:47:58;3.85;;;1.10;;
14118;SDS011;7138;49.246;9.100;2023-07-20T11:50:24;4.20;;;1.13;;
14118;SDS011;7138;49.246;9.100;2023-07-20T11:52:50;4.55;;;1.20;;
14118;SDS011;7138;49.246;9.100;2023-07-20T11:55:16;3.70;;;1.20;;
14118;SDS011;7138;49.246;9.100;2023-07-20T11:57:57;3.22;;;1.23;;
14118;SDS011;7138;49.246;9.100;2023-07-20T12:00:28;4.85;;;1.35;;
14118;SDS011;7138;49.246;9.100;2023-07-20T12:02:57;5.22;;;1.33;;
14118;SDS011;7138;49.246;9.100;2023-07-20T12:05:23;4.95;;;1.10;;
14118;SDS011;7138;49.246;9.100;2023-07-20T12:07:49;4.15;;;1.20;;
14118;SDS011;7138;49.246;9.100;2023-07-20T12:10:23;2.77;;;0.80;;
14118;SDS011;7138;49.246;9.100;2023-07-20T12:12:51;3.72;;;1.05;;
14118;SDS011;7138;49.246;9.100;2023-07-20T12:15:21;3.67;;;1.10;;
14118;SDS011;7138;49.246;9.100;2023-07-20T12:17:49;3.20;;;1.25;;
14118;SDS011;7138;49.246;9.100;2023-07-20T12:20:24;3.10;;;1.20;;
14118;SDS011;7138;49.246;9.100;2023-07-20T12:22:52;2.60;;;1.00;;
14118;SDS011;7138;49.246;9.100;2023-07-20T12:25:20;3.47;;;1.42;;
14118;SDS011;7138;49.246;9.100;2023-07-20T12:27:47;3.63;;;1.27;;
14118;SDS011;7138;49.246;9.100;2023-07-20T12:30:13;4.18;;;1.30;;
14118;SDS011;7138;49.246;9.100;2023-07-20T12:32:41;3.00;;;0.93;;
14118;SDS011;7138;49.246;9.100;2023-07-20T12:35:07;3.72;;;1.17;;
14118;SDS011;7138;49.246;9.100;2023-07-20T12:37:33;5.57;;;1.40;;
14118;SDS011;7138;49.246;9.100;2023-07-20T12:39:59;3.47;;;1.20;;
14118;SDS011;7138;49.246;9.100;2023-07-20T12:42:25;4.85;;;1.30;;
14118;SDS011;7138;49.246;9.100;2023-07-20T12:44:51;3.72;;;1.10;;
14118;SDS011;7138;49.246;9.100;2023-07-20T12:47:17;3.17;;;0.98;;
14118;SDS011;7138;49.246;9.100;2023-07-20T12:49:45;2.40;;;0.90;;
14118;SDS011;7138;49.246;9.100;2023-07-20T12:52:11;4.32;;;1.08;;
14118;SDS011;7138;49.246;9.100;2023-07-20T12:54:37;3.90;;;1.20;;
14118;SDS011;7138;49.246;9.100;2023-07-20T12:57:03;3.67;;;1.17;;
14118;SDS011;7138;49.246;9.100;2023-07-20T12:59:30;3.85;;;1.05;;
14118;SDS011;7138;49.246;9.100;2023-07-20T13:01:55;4.03;;;1.33;;
14118;SDS011;7138;49.246;9.100;2023-07-20T13:04:21;3.10;;;1.20;;
14118;SDS011;7138;49.246;9.100;2023-07-20T13:06:48;5.47;;;1.30;;
14118;SDS011;7138;49.246;9.100;2023-07-20T13:09:14;5.07;;;1.15;;
14118;SDS011;7138;49.246;9.100;2023-07-20T13:11:40;3.17;;;1.00;;
14118;SDS011;7138;49.246;9.100;2023-07-20T13:14:06;4.65;;;1.27;;
14118;SDS011;7138;49.246;9.100;2023-07-20T13:16:32;4.95;;;1.17;;
14118;SDS011;7138;49.246;9.100;2023-07-20T13:18:59;3.78;;;1.30;;
14118;SDS011;7138;49.246;9.100;2023-07-20T13:21:24;2.85;;;1.30;;
14118;SDS011;7138;49.246;9.100;2023-07-20T13:23:52;3.20;;;1.08;;
14118;SDS011;7138;49.246;9.100;2023-07-20T13:26:17;3.70;;;1.23;;
14118;SDS011;7138;49.246;9.100;2023-07-20T13:28:44;3.42;;;1.10;;
14118;SDS011;7138;49.246;9.100;2023-07-20T13:31:10;3.15;;;1.08;;
14118;SDS011;7138;49.246;9.100;2023-07-20T13:33:36;3.80;;;1.13;;
14118;SDS011;7138;49.246;9.100;2023-07-20T13:36:02;3.00;;;1.10;;
14118;SDS011;7138;49.246;9.100;2023-07-20T13:38:30;3.30;;;1.05;;
14118;SDS011;7138;49.246;9.100;2023-07-20T13:40:58;4.70;;;1.20;;
14118;SDS011;7138;49.246;9.100;2023-07-20T13:43:24;4.78;;;1.20;;
14118;SDS011;7138;49.246;9.100;2023-07-20T13:45:50;2.70;;;1.30;;
14118;SDS011;7138;49.246;9.100;2023-07-20T13:48:16;3.90;;;1.20;;
14118;SDS011;7138;49.246;9.100;2023-07-20T13:50:44;2.83;;;1.38;;
14118;SDS011;7138;49.246;9.100;2023-07-20T13:53:11;3.65;;;1.30;;
14118;SDS011;7138;49.246;9.100;2023-07-20T13:55:38;3.72;;;1.08;;
14118;SDS011;7138;49.246;9.100;2023-07-20T13:58:05;3.88;;;1.10;;
14118;SDS011;7138;49.246;9.100;2023-07-20T14:00:31;3.58;;;1.10;;
14118;SDS011;7138;49.246;9.100;2023-07-20T14:02:58;6.85;;;1.25;;
14118;SDS011;7138;49.246;9.100;2023-07-20T14:05:24;3.28;;;1.10;;
14118;SDS011;7138;49.246;9.100;2023-07-20T14:07:50;3.85;;;1.20;;
14118;SDS011;7138;49.246;9.100;2023-07-20T14:10:16;4.28;;;1.10;;
14118;SDS011;7138;49.246;9.100;2023-07-20T14:12:42;3.75;;;1.10;;
14118;SDS011;7138;49.246;9.100;2023-07-20T14:15:11;3.47;;;1.02;;
14118;SDS011;7138;49.246;9.100;2023-07-20T14:17:37;5.28;;;1.20;;
14118;SDS011;7138;49.246;9.100;2023-07-20T14:20:03;4.13;;;1.10;;
14118;SDS011;7138;49.246;9.100;2023-07-20T14:22:31;2.38;;;1.13;;
14118;SDS011;7138;49.246;9.100;2023-07-20T14:24:57;3.58;;;1.00;;
14118;SDS011;7138;49.246;9.100;2023-07-20T14:27:24;2.83;;;0.88;;
14118;SDS011;7138;49.246;9.100;2023-07-20T14:29:49;2.67;;;1.08;;
14118;SDS011;7138;49.246;9.100;2023-07-20T14:32:17;2.90;;;1.00;;
14118;SDS011;7138;49.246;9.100;2023-07-20T14:34:42;4.28;;;1.30;;
14118;SDS011;7138;49.246;9.100;2023-07-20T14:37:08;2.78;;;1.20;;
14118;SDS011;7138;49.246;9.100;2023-07-20T14:39:34;3.10;;;1.17;;
14118;SDS011;7138;49.246;9.100;2023-07-20T14:42:00;3.65;;;1.13;;
14118;SDS011;7138;49.246;9.100;2023-07-20T14:44:28;3.95;;;1.08;;
14118;SDS011;7138;49.246;9.100;2023-07-20T14:46:54;2.90;;;1.13;;
14118;SDS011;7138;49.246;9.100;2023-07-20T14:49:22;2.50;;;1.13;;
14118;SDS011;7138;49.246;9.100;2023-07-20T14:51:48;3.97;;;1.27;;
14118;SDS011;7138;49.246;9.100;2023-07-20T14:54:14;3.22;;;1.00;;
14118;SDS011;7138;49.246;9.100;2023-07-20T14:56:46;3.53;;;1.20;;
14118;SDS011;7138;49.246;9.100;2023-07-20T14:59:18;3.83;;;0.93;;
14118;SDS011;7138;49.246;9.100;2023-07-20T15:01:45;2.78;;;1.02;;
14118;SDS011;7138;49.246;9.100;2023-07-20T15:04:11;4.65;;;1.23;;
14118;SDS011;7138;49.246;9.100;2023-07-20T15:06:39;3.40;;;1.10;;
14118;SDS011;7138;49.246;9.100;2023-07-20T15:09:05;3.83;;;1.17;;
14118;SDS011;7138;49.246;9.100;2023-07-20T15:11:30;2.55;;;1.00;;
14118;SDS011;7138;49.246;9.100;2023-07-20T15:13:56;3.08;;;1.02;;
14118;SDS011;7138;49.246;9.100;2023-07-20T15:16:23;2.60;;;0.95;;